Pagrindinis puslapis
METAR-TAF:

METAR-TAF

Oro uostai :

Vyner Noištatas, Austrija

platuma: 47-50-36N, ilguma: 016-15-29E, Aukštis: 272 m

Dabartinis oras

Ataskaita buvo paskelbta 7 valandos ir 34 minutes, ne 16:00 UTC
Vėjas 4 kt iš Rytų
Temperatūra
Slėgis
Matomumas: 0100 m
įšaldymas rūko

METAR: LOAN 271600Z 10004KT 0100 FZFG VV001

Laikas: 00:34 (23:34 UTC)

Prognozė

Ataskaita buvo paskelbta 8 valandos ir 28 minutes, ne 15:06 UTC
Prognozė galioja nuo 27 metu 15 UTC su 27 metu 21 UTC
Vėjas 2 kt nuo kintamojo kryptimis
Matomumas: 0100 m
ne aukštis 100 ft
įšaldymas rūko
Laikinai
nuo 27 metu 15 UTC su 27 metu 21 UTC
Matomumas: 0500 m
Išsisklaidę debesys ne aukštis 200 ft
Su prošvaistėmis ne aukštis 300 ft
rūkana

TAF: LOAN 271506Z 2715/2721 VRB02KT 0100 FZFG VV001 TEMPO 2715/2721 0500 BR SCT002 BKN003

Orai ataskaitas ir orų prognozės (METAR, TAF).

turimą stotys yra geltonos ir raudonos taškus žemėlapyje.

Perkelti pele per norėdami pamatyti stoties vardą.

Tada spustelėkite, norėdami matyti oro stebėjimo ir prognozės.

Norėdami pakeisti žemėlapį: spustelėkite ant žalios mygtukų su juodo kryžiaus žemyn,; žalią mygtuką su brūkšneliu, jei norite nutolinti; arba žalių rodyklių gretimoms žemėlapius.


METAR-TAF: